Glen Eden, Indiana
Current Conditions -  °F | °C
As of 5:55 AM on Thursday 18 Dec 2014 (Local Time) from KANQ Reporting Station
Overcast Overcast  
Wind Chill: 21°   Ceiling: 2100
Heat Index: 27°   Visibility: 10mi
Dew Point: 21°   Wind: 5mph
Humidity: 80%   Direction: 290°WNW
Pressure: 30.21"   Gusts: NA
Location:  41.6594°N, 85.0055°W
Report Text: KANQ 181055Z AUTO 29004KT 10SM OVC021 M03/M06 A3021 RMK
Loading
Personal Weather Stations






























Interactive Weather Map New forecast layout! Learn more

10-Day Weather Forecast

Advertisements
Track Severe Weather on mobile